Terminal Aerodrome Forecast
Issued by NWS

Home | Current Version | Previous Version | Text Only | Print | Product List | Glossary On
Versions: 1 2 3 4 5 6 7 8 9 10 11 12 13 14 15 16 17 18 19 20 21 22 23 24 25 26 27 28 29 30 31 32 33
000
FTUS43 KLOT 310156 AAA
TAFMDW
TAF AMD
KMDW 310156Z 3102/3124 14009KT P6SM VCSH OVC070
     FM310500 VRB06KT P6SM BKN100
     FM310900 01009KT P6SM SKC
     FM311300 34008KT P6SM SKC
     FM311900 29008KT P6SM SKC=

USA.gov is the U.S. government's official web portal to all federal, state and local government web resources and services.